SWA1365 KLAX-KPHX
Flight info
| Callsign | SWA1365 |
|---|---|
| Flight time | 0h 55m |
| Altitude | 31000 |
| Route | DOTSS2 CNERY BLH HYDRR1 |
| Aircraft | B738/M-SADE2E3GIJ4RWZ/LB1D1 |
Departure
| Time | 2026-04-22 22:24 |
|---|---|
| Airport | Los Angeles International Airport (KLAX) |
Arrival
| Time | 2026-04-22 23:19 |
|---|---|
| Airport | Phoenix Sky Harbor International Airport (KPHX) |
| Time | Latitude | Longitude | Altitude | Speed | Heading |
|---|---|---|---|---|---|
| 2026-04-22 22:11 | 33.94792 | -118.40133 | 119 ft | 0 kts | 188° |
| 2026-04-22 22:18 | 33.94804 | -118.40131 | 118 ft | 2 kts | 196° |
| 2026-04-22 22:18 | 33.94818 | -118.40123 | 118 ft | 2 kts | 213° |
| 2026-04-22 22:18 | 33.94830 | -118.40112 | 118 ft | 2 kts | 227° |
| 2026-04-22 22:18 | 33.94839 | -118.40097 | 118 ft | 2 kts | 242° |
| 2026-04-22 22:19 | 33.94844 | -118.40080 | 118 ft | 2 kts | 257° |
| 2026-04-22 22:19 | 33.94846 | -118.40063 | 118 ft | 2 kts | 272° |
| 2026-04-22 22:19 | 33.94846 | -118.40052 | 118 ft | 1 kts | 281° |
| 2026-04-22 22:19 | 33.94844 | -118.40048 | 118 ft | 0 kts | 280° |
| 2026-04-22 22:20 | 33.94845 | -118.40048 | 118 ft | 0 kts | 280° |
| 2026-04-22 22:21 | 33.94844 | -118.40048 | 118 ft | 0 kts | 280° |
| 2026-04-22 22:21 | 33.94845 | -118.40048 | 118 ft | 0 kts | 280° |
| 2026-04-22 22:22 | 33.94848 | -118.40060 | 118 ft | 5 kts | 296° |
| 2026-04-22 22:22 | 33.94904 | -118.40123 | 118 ft | 9 kts | 300° |
| 2026-04-22 22:22 | 33.94926 | -118.40166 | 119 ft | 2 kts | 319° |
| 2026-04-22 22:23 | 33.94956 | -118.40179 | 119 ft | 5 kts | 354° |
| 2026-04-22 22:23 | 33.94996 | -118.40186 | 119 ft | 7 kts | 333° |
| 2026-04-22 22:23 | 33.95009 | -118.40286 | 120 ft | 19 kts | 263° |
| 2026-04-22 22:23 | 33.94970 | -118.40644 | 122 ft | 76 kts | 262° |
| 2026-04-22 22:24 | 33.94881 | -118.41520 | 123 ft | 136 kts | 263° |
| 2026-04-22 22:24 | 33.94761 | -118.42763 | 599 ft | 146 kts | 263° |
| 2026-04-22 22:24 | 33.94659 | -118.43915 | 1259 ft | 144 kts | 263° |
| 2026-04-22 22:24 | 33.94521 | -118.45191 | 1573 ft | 162 kts | 262° |
| 2026-04-22 22:25 | 33.94369 | -118.46594 | 1968 ft | 176 kts | 265° |
| 2026-04-22 22:25 | 33.94296 | -118.48129 | 2350 ft | 193 kts | 268° |
| 2026-04-22 22:25 | 33.94259 | -118.49808 | 2770 ft | 209 kts | 269° |
| 2026-04-22 22:25 | 33.94181 | -118.51595 | 3249 ft | 223 kts | 267° |
| 2026-04-22 22:26 | 33.94030 | -118.53519 | 3729 ft | 238 kts | 266° |
| 2026-04-22 22:26 | 33.93859 | -118.55542 | 4183 ft | 252 kts | 266° |
| 2026-04-22 22:26 | 33.93682 | -118.57698 | 4781 ft | 261 kts | 266° |
| 2026-04-22 22:26 | 33.93360 | -118.59821 | 5516 ft | 265 kts | 255° |
| 2026-04-22 22:27 | 33.92429 | -118.61766 | 6188 ft | 276 kts | 230° |
| 2026-04-22 22:27 | 33.90885 | -118.63130 | 6940 ft | 282 kts | 210° |
| 2026-04-22 22:27 | 33.89041 | -118.63975 | 7704 ft | 287 kts | 197° |
| 2026-04-22 22:27 | 33.87027 | -118.64159 | 8497 ft | 293 kts | 182° |
| 2026-04-22 22:28 | 33.84986 | -118.63924 | 9236 ft | 300 kts | 173° |
| 2026-04-22 22:28 | 33.83020 | -118.62975 | 9963 ft | 310 kts | 152° |
| 2026-04-22 22:28 | 33.81193 | -118.61509 | 10482 ft | 324 kts | 149° |
| 2026-04-22 22:28 | 33.79297 | -118.59917 | 10892 ft | 340 kts | 149° |
| 2026-04-22 22:29 | 33.77311 | -118.58265 | 11335 ft | 355 kts | 149° |
| 2026-04-22 22:29 | 33.75234 | -118.56560 | 11734 ft | 370 kts | 149° |
| 2026-04-22 22:29 | 33.73066 | -118.54793 | 12122 ft | 386 kts | 149° |
| 2026-04-22 22:29 | 33.70904 | -118.52785 | 12492 ft | 403 kts | 140° |
| 2026-04-22 22:30 | 33.69091 | -118.50100 | 12861 ft | 422 kts | 121° |
| 2026-04-22 22:30 | 33.67916 | -118.46855 | 13505 ft | 428 kts | 111° |
| 2026-04-22 22:30 | 33.66931 | -118.43481 | 14170 ft | 434 kts | 109° |
| 2026-04-22 22:30 | 33.65971 | -118.39989 | 14775 ft | 441 kts | 109° |
| 2026-04-22 22:31 | 33.65143 | -118.36440 | 15417 ft | 447 kts | 103° |
| 2026-04-22 22:31 | 33.64664 | -118.32745 | 16146 ft | 451 kts | 96° |
| 2026-04-22 22:31 | 33.64448 | -118.28965 | 16743 ft | 458 kts | 92° |
| 2026-04-22 22:31 | 33.64375 | -118.25154 | 17347 ft | 464 kts | 90° |
| 2026-04-22 22:32 | 33.64370 | -118.21277 | 17984 ft | 469 kts | 90° |
| 2026-04-22 22:32 | 33.64393 | -118.17395 | 18654 ft | 472 kts | 89° |
| 2026-04-22 22:32 | 33.64425 | -118.13437 | 19204 ft | 478 kts | 89° |
| 2026-04-22 22:32 | 33.64452 | -118.09403 | 19786 ft | 483 kts | 90° |
| 2026-04-22 22:33 | 33.64469 | -118.05363 | 20417 ft | 487 kts | 89° |
| 2026-04-22 22:33 | 33.64480 | -118.01296 | 21023 ft | 491 kts | 90° |
| 2026-04-22 22:33 | 33.64483 | -117.97196 | 21569 ft | 496 kts | 90° |
| 2026-04-22 22:33 | 33.64482 | -117.93102 | 22184 ft | 498 kts | 90° |
| 2026-04-22 22:34 | 33.64476 | -117.88882 | 22700 ft | 504 kts | 91° |
| 2026-04-22 22:34 | 33.64413 | -117.84686 | 23127 ft | 510 kts | 93° |
| 2026-04-22 22:34 | 33.64095 | -117.80464 | 23737 ft | 511 kts | 98° |
| 2026-04-22 22:34 | 33.63508 | -117.76215 | 24237 ft | 514 kts | 103° |
| 2026-04-22 22:35 | 33.62713 | -117.72047 | 24734 ft | 517 kts | 106° |
| 2026-04-22 22:35 | 33.61775 | -117.67886 | 25211 ft | 521 kts | 108° |
| 2026-04-22 22:35 | 33.60747 | -117.63680 | 25692 ft | 525 kts | 109° |
| 2026-04-22 22:35 | 33.59678 | -117.59469 | 26127 ft | 529 kts | 110° |
| 2026-04-22 22:36 | 33.58607 | -117.55307 | 26886 ft | 526 kts | 110° |
| 2026-04-22 22:36 | 33.57534 | -117.51141 | 27678 ft | 521 kts | 110° |
| 2026-04-22 22:36 | 33.56482 | -117.47034 | 28323 ft | 520 kts | 109° |
| 2026-04-22 22:36 | 33.55416 | -117.42853 | 28675 ft | 525 kts | 109° |
| 2026-04-22 22:37 | 33.54356 | -117.38668 | 29278 ft | 524 kts | 109° |
| 2026-04-22 22:37 | 33.53298 | -117.34470 | 29843 ft | 523 kts | 110° |
| 2026-04-22 22:37 | 33.52264 | -117.30257 | 30292 ft | 525 kts | 109° |
| 2026-04-22 22:37 | 33.51338 | -117.26025 | 30719 ft | 528 kts | 105° |
| 2026-04-22 22:38 | 33.50670 | -117.21678 | 31070 ft | 532 kts | 100° |
| 2026-04-22 22:38 | 33.50084 | -117.12735 | 31108 ft | 533 kts | 92° |
| 2026-04-22 22:39 | 33.50000 | -117.03897 | 31121 ft | 535 kts | 91° |
| 2026-04-22 22:39 | 33.50007 | -116.94975 | 31105 ft | 535 kts | 91° |
| 2026-04-22 22:40 | 33.49967 | -116.86105 | 31103 ft | 534 kts | 91° |
| 2026-04-22 22:40 | 33.49864 | -116.77203 | 31095 ft | 532 kts | 91° |
| 2026-04-22 22:41 | 33.49728 | -116.68357 | 31102 ft | 535 kts | 92° |
| 2026-04-22 22:41 | 33.49576 | -116.59475 | 31106 ft | 533 kts | 91° |
| 2026-04-22 22:42 | 33.49414 | -116.50684 | 31096 ft | 533 kts | 91° |
| 2026-04-22 22:42 | 33.49241 | -116.41774 | 31096 ft | 533 kts | 91° |
| 2026-04-22 22:43 | 33.49091 | -116.32910 | 31077 ft | 533 kts | 92° |
| 2026-04-22 22:43 | 33.48961 | -116.24056 | 31059 ft | 534 kts | 92° |
| 2026-04-22 22:44 | 33.48827 | -116.15118 | 31033 ft | 546 kts | 92° |
| 2026-04-22 22:44 | 33.48922 | -116.06009 | 30992 ft | 551 kts | 86° |
| 2026-04-22 22:45 | 33.50354 | -115.97019 | 30943 ft | 548 kts | 72° |
| 2026-04-22 22:45 | 33.52720 | -115.88378 | 30939 ft | 547 kts | 68° |
| 2026-04-22 22:46 | 33.55344 | -115.79871 | 30982 ft | 545 kts | 66° |
| 2026-04-22 22:46 | 33.57955 | -115.71364 | 31008 ft | 548 kts | 67° |
| 2026-04-22 22:47 | 33.60351 | -115.62730 | 31015 ft | 546 kts | 73° |
| 2026-04-22 22:47 | 33.61558 | -115.53671 | 31025 ft | 548 kts | 85° |
| 2026-04-22 22:48 | 33.61709 | -115.44563 | 31019 ft | 547 kts | 91° |
| 2026-04-22 22:48 | 33.61472 | -115.35452 | 31006 ft | 547 kts | 93° |
| 2026-04-22 22:49 | 33.61144 | -115.26311 | 30995 ft | 548 kts | 94° |
| 2026-04-22 22:49 | 33.60833 | -115.17195 | 30981 ft | 549 kts | 93° |
| 2026-04-22 22:50 | 33.60553 | -115.08027 | 30982 ft | 547 kts | 93° |
| 2026-04-22 22:50 | 33.60297 | -114.98933 | 30974 ft | 548 kts | 92° |
| 2026-04-22 22:51 | 33.60043 | -114.89801 | 30960 ft | 547 kts | 92° |
| 2026-04-22 22:51 | 33.59750 | -114.80700 | 30968 ft | 547 kts | 94° |
| 2026-04-22 22:52 | 33.58825 | -114.71725 | 30957 ft | 545 kts | 102° |
| 2026-04-22 22:52 | 33.57275 | -114.62849 | 30961 ft | 545 kts | 105° |
| 2026-04-22 22:53 | 33.55503 | -114.54039 | 30949 ft | 544 kts | 106° |
| 2026-04-22 22:53 | 33.53688 | -114.45204 | 30611 ft | 547 kts | 106° |
| 2026-04-22 22:53 | 33.52800 | -114.40839 | 29979 ft | 545 kts | 105° |
| 2026-04-22 22:54 | 33.51910 | -114.36420 | 29187 ft | 544 kts | 105° |
| 2026-04-22 22:54 | 33.51030 | -114.32021 | 28304 ft | 544 kts | 106° |
| 2026-04-22 22:54 | 33.50150 | -114.27603 | 27624 ft | 539 kts | 106° |
| 2026-04-22 22:54 | 33.49297 | -114.23299 | 26985 ft | 534 kts | 105° |
| 2026-04-22 22:55 | 33.48441 | -114.18967 | 26316 ft | 532 kts | 106° |
| 2026-04-22 22:55 | 33.47591 | -114.14681 | 25633 ft | 532 kts | 106° |
| 2026-04-22 22:55 | 33.45891 | -114.06126 | 25002 ft | 526 kts | 106° |
| 2026-04-22 22:56 | 33.45041 | -114.01876 | 24992 ft | 531 kts | 106° |
| 2026-04-22 22:56 | 33.44176 | -113.97564 | 24992 ft | 532 kts | 105° |
| 2026-04-22 22:56 | 33.43310 | -113.93263 | 24991 ft | 531 kts | 106° |
| 2026-04-22 22:56 | 33.42449 | -113.88983 | 24991 ft | 530 kts | 106° |
| 2026-04-22 22:57 | 33.41588 | -113.84701 | 24989 ft | 530 kts | 106° |
| 2026-04-22 22:57 | 33.40725 | -113.80416 | 24985 ft | 532 kts | 106° |
| 2026-04-22 22:57 | 33.39858 | -113.76117 | 24985 ft | 531 kts | 105° |
| 2026-04-22 22:57 | 33.39003 | -113.71883 | 24982 ft | 530 kts | 106° |
| 2026-04-22 22:58 | 33.38122 | -113.67536 | 24983 ft | 532 kts | 106° |
| 2026-04-22 22:58 | 33.37259 | -113.63287 | 24809 ft | 532 kts | 106° |
| 2026-04-22 22:58 | 33.36383 | -113.58991 | 24126 ft | 531 kts | 106° |
| 2026-04-22 22:58 | 33.35503 | -113.54670 | 23330 ft | 526 kts | 106° |
| 2026-04-22 22:59 | 33.34639 | -113.50435 | 22624 ft | 520 kts | 106° |
| 2026-04-22 22:59 | 33.33798 | -113.46313 | 22078 ft | 510 kts | 106° |
| 2026-04-22 22:59 | 33.33002 | -113.42261 | 21979 ft | 497 kts | 105° |
| 2026-04-22 22:59 | 33.32269 | -113.38208 | 21973 ft | 502 kts | 104° |
| 2026-04-22 23:00 | 33.31558 | -113.34094 | 21968 ft | 505 kts | 104° |
| 2026-04-22 23:00 | 33.30858 | -113.29965 | 21774 ft | 506 kts | 104° |
| 2026-04-22 23:00 | 33.30177 | -113.25909 | 21469 ft | 502 kts | 104° |
| 2026-04-22 23:00 | 33.29489 | -113.21796 | 20926 ft | 499 kts | 103° |
| 2026-04-22 23:01 | 33.28860 | -113.17749 | 20302 ft | 493 kts | 102° |
| 2026-04-22 23:01 | 33.28286 | -113.13754 | 19663 ft | 486 kts | 102° |
| 2026-04-22 23:01 | 33.27768 | -113.09805 | 19112 ft | 478 kts | 99° |
| 2026-04-22 23:01 | 33.27506 | -113.05909 | 18960 ft | 457 kts | 94° |
| 2026-04-22 23:02 | 33.27468 | -113.02271 | 18955 ft | 431 kts | 91° |
| 2026-04-22 23:02 | 33.27536 | -112.98766 | 18786 ft | 417 kts | 89° |
| 2026-04-22 23:02 | 33.27648 | -112.95335 | 18486 ft | 407 kts | 88° |
| 2026-04-22 23:02 | 33.27767 | -112.91997 | 18061 ft | 403 kts | 89° |
| 2026-04-22 23:03 | 33.27880 | -112.88666 | 17567 ft | 400 kts | 89° |
| 2026-04-22 23:03 | 33.27979 | -112.85378 | 17083 ft | 397 kts | 89° |
| 2026-04-22 23:03 | 33.28068 | -112.82111 | 16919 ft | 384 kts | 89° |
| 2026-04-22 23:03 | 33.28233 | -112.78973 | 16721 ft | 375 kts | 85° |
| 2026-04-22 23:04 | 33.28511 | -112.75914 | 16468 ft | 367 kts | 83° |
| 2026-04-22 23:04 | 33.28834 | -112.72930 | 16222 ft | 360 kts | 83° |
| 2026-04-22 23:04 | 33.29162 | -112.69968 | 15974 ft | 355 kts | 83° |
| 2026-04-22 23:04 | 33.29467 | -112.67056 | 15730 ft | 354 kts | 84° |
| 2026-04-22 23:05 | 33.29758 | -112.64140 | 15482 ft | 352 kts | 84° |
| 2026-04-22 23:05 | 33.30031 | -112.61280 | 15243 ft | 351 kts | 84° |
| 2026-04-22 23:05 | 33.30302 | -112.58383 | 14997 ft | 349 kts | 84° |
| 2026-04-22 23:05 | 33.30567 | -112.55493 | 14760 ft | 348 kts | 84° |
| 2026-04-22 23:06 | 33.30827 | -112.52648 | 14404 ft | 345 kts | 84° |
| 2026-04-22 23:06 | 33.31090 | -112.49803 | 14014 ft | 344 kts | 84° |
| 2026-04-22 23:06 | 33.31348 | -112.46995 | 13734 ft | 338 kts | 84° |
| 2026-04-22 23:06 | 33.31604 | -112.44215 | 13386 ft | 336 kts | 84° |
| 2026-04-22 23:07 | 33.31858 | -112.41444 | 12907 ft | 338 kts | 84° |
| 2026-04-22 23:07 | 33.32113 | -112.38663 | 12420 ft | 340 kts | 84° |
| 2026-04-22 23:07 | 33.32370 | -112.35847 | 12004 ft | 338 kts | 84° |
| 2026-04-22 23:07 | 33.32626 | -112.33058 | 11603 ft | 336 kts | 85° |
| 2026-04-22 23:08 | 33.32882 | -112.30265 | 11198 ft | 334 kts | 85° |
| 2026-04-22 23:08 | 33.33133 | -112.27525 | 10795 ft | 332 kts | 85° |
| 2026-04-22 23:08 | 33.33380 | -112.24806 | 10403 ft | 330 kts | 85° |
| 2026-04-22 23:08 | 33.33628 | -112.22074 | 10027 ft | 327 kts | 85° |
| 2026-04-22 23:09 | 33.33868 | -112.19433 | 9854 ft | 314 kts | 85° |
| 2026-04-22 23:09 | 33.34100 | -112.16869 | 9490 ft | 307 kts | 85° |
| 2026-04-22 23:09 | 33.34325 | -112.14358 | 9245 ft | 295 kts | 85° |
| 2026-04-22 23:09 | 33.34536 | -112.11993 | 9161 ft | 279 kts | 86° |
| 2026-04-22 23:10 | 33.34725 | -112.09725 | 9002 ft | 271 kts | 89° |
| 2026-04-22 23:10 | 33.34763 | -112.07505 | 8691 ft | 269 kts | 93° |
| 2026-04-22 23:10 | 33.34732 | -112.05258 | 8351 ft | 269 kts | 94° |
| 2026-04-22 23:10 | 33.34693 | -112.03030 | 7968 ft | 269 kts | 93° |
| 2026-04-22 23:11 | 33.34661 | -112.00804 | 7586 ft | 268 kts | 93° |
| 2026-04-22 23:11 | 33.34633 | -111.98582 | 7205 ft | 268 kts | 92° |
| 2026-04-22 23:11 | 33.34605 | -111.96368 | 6828 ft | 267 kts | 92° |
| 2026-04-22 23:11 | 33.34576 | -111.94154 | 6451 ft | 266 kts | 92° |
| 2026-04-22 23:12 | 33.34559 | -111.91954 | 6176 ft | 260 kts | 91° |
| 2026-04-22 23:12 | 33.34603 | -111.89853 | 6084 ft | 245 kts | 89° |
| 2026-04-22 23:12 | 33.34669 | -111.87838 | 5802 ft | 243 kts | 89° |
| 2026-04-22 23:12 | 33.34729 | -111.85819 | 5441 ft | 246 kts | 89° |
| 2026-04-22 23:13 | 33.34781 | -111.83778 | 5157 ft | 244 kts | 90° |
| 2026-04-22 23:13 | 33.34827 | -111.81754 | 4882 ft | 243 kts | 89° |
| 2026-04-22 23:13 | 33.34873 | -111.79727 | 4553 ft | 244 kts | 90° |
| 2026-04-22 23:13 | 33.34937 | -111.77714 | 4256 ft | 244 kts | 84° |
| 2026-04-22 23:14 | 33.35563 | -111.75867 | 3941 ft | 242 kts | 47° |
| 2026-04-22 23:14 | 33.36966 | -111.74880 | 3651 ft | 234 kts | 7° |
| 2026-04-22 23:14 | 33.38531 | -111.75132 | 3322 ft | 225 kts | 330° |
| 2026-04-22 23:14 | 33.39731 | -111.76276 | 3072 ft | 217 kts | 309° |
| 2026-04-22 23:15 | 33.40696 | -111.77643 | 3031 ft | 213 kts | 305° |
| 2026-04-22 23:15 | 33.41643 | -111.79050 | 3033 ft | 219 kts | 306° |
| 2026-04-22 23:15 | 33.42542 | -111.80508 | 3027 ft | 215 kts | 295° |
| 2026-04-22 23:15 | 33.42914 | -111.82158 | 3036 ft | 200 kts | 272° |
| 2026-04-22 23:16 | 33.42895 | -111.83777 | 3032 ft | 191 kts | 266° |
| 2026-04-22 23:16 | 33.42868 | -111.85371 | 3026 ft | 189 kts | 268° |
| 2026-04-22 23:16 | 33.42869 | -111.86940 | 3031 ft | 192 kts | 269° |
| 2026-04-22 23:16 | 33.42869 | -111.88523 | 2976 ft | 181 kts | 269° |
| 2026-04-22 23:17 | 33.42867 | -111.89961 | 2743 ft | 167 kts | 269° |
| 2026-04-22 23:17 | 33.42870 | -111.91282 | 2539 ft | 155 kts | 269° |
| 2026-04-22 23:17 | 33.42869 | -111.92567 | 2348 ft | 154 kts | 269° |
| 2026-04-22 23:17 | 33.42871 | -111.93847 | 2139 ft | 150 kts | 269° |
| 2026-04-22 23:18 | 33.42871 | -111.95107 | 1949 ft | 152 kts | 269° |
| 2026-04-22 23:18 | 33.42869 | -111.96363 | 1710 ft | 151 kts | 269° |
| 2026-04-22 23:18 | 33.42885 | -111.97604 | 1555 ft | 147 kts | 268° |
| 2026-04-22 23:18 | 33.42881 | -111.98840 | 1405 ft | 151 kts | 270° |
| 2026-04-22 23:19 | 33.42882 | -112.00078 | 1209 ft | 148 kts | 269° |
| 2026-04-22 23:19 | 33.42886 | -112.01234 | 1145 ft | 112 kts | 269° |
| 2026-04-22 23:19 | 33.42885 | -112.01847 | 1145 ft | 42 kts | 271° |
| 2026-04-22 23:19 | 33.42897 | -112.02063 | 1145 ft | 20 kts | 278° |
| 2026-04-22 23:20 | 33.42966 | -112.02157 | 1145 ft | 13 kts | 18° |
| 2026-04-22 23:20 | 33.42995 | -112.02054 | 1145 ft | 15 kts | 89° |
| 2026-04-22 23:20 | 33.42993 | -112.01909 | 1145 ft | 19 kts | 91° |
| 2026-04-22 23:20 | 33.42994 | -112.01731 | 1145 ft | 22 kts | 90° |
| 2026-04-22 23:21 | 33.42993 | -112.01540 | 1145 ft | 23 kts | 91° |
| 2026-04-22 23:21 | 33.42992 | -112.01343 | 1145 ft | 25 kts | 91° |
| 2026-04-22 23:21 | 33.42994 | -112.01123 | 1144 ft | 26 kts | 90° |
| 2026-04-22 23:21 | 33.42994 | -112.00909 | 1144 ft | 25 kts | 89° |
| 2026-04-22 23:22 | 33.42995 | -112.00706 | 1144 ft | 24 kts | 90° |
| 2026-04-22 23:22 | 33.42993 | -112.00508 | 1144 ft | 23 kts | 91° |
| 2026-04-22 23:22 | 33.43021 | -112.00343 | 1144 ft | 17 kts | 39° |
| 2026-04-22 23:22 | 33.43142 | -112.00315 | 1144 ft | 21 kts | 16° |
| 2026-04-22 23:23 | 33.43212 | -112.00176 | 1144 ft | 20 kts | 81° |
| 2026-04-22 23:23 | 33.43264 | -112.00043 | 1144 ft | 15 kts | 53° |
| 2026-04-22 23:23 | 33.43283 | -111.99954 | 1144 ft | 12 kts | 91° |
| 2026-04-22 23:23 | 33.43282 | -111.99830 | 1144 ft | 15 kts | 90° |
| 2026-04-22 23:24 | 33.43281 | -111.99683 | 1144 ft | 21 kts | 89° |
| 2026-04-22 23:24 | 33.43283 | -111.99509 | 1144 ft | 19 kts | 89° |
| 2026-04-22 23:24 | 33.43284 | -111.99365 | 1144 ft | 13 kts | 89° |
| 2026-04-22 23:24 | 33.43339 | -111.99307 | 1144 ft | 10 kts | 2° |
| 2026-04-22 23:25 | 33.43393 | -111.99331 | 1144 ft | 6 kts | 305° |
| 2026-04-22 23:25 | 33.43407 | -111.99367 | 1144 ft | 0 kts | 294° |